createdAt,value
2023-01-26T00:00:42.864Z,26.80
2023-01-26T00:03:10.915Z,30.70
2023-01-26T00:05:38.477Z,28.30
2023-01-26T00:08:05.449Z,29.20
2023-01-26T00:10:35.947Z,30.40
2023-01-26T00:13:04.765Z,43.30
2023-01-26T00:15:37.626Z,36.90
2023-01-26T00:18:05.285Z,29.10
2023-01-26T00:20:32.431Z,32.30
2023-01-26T00:23:00.433Z,28.60
2023-01-26T00:25:27.627Z,34.20
2023-01-26T00:27:54.607Z,39.40
2023-01-26T00:30:21.455Z,37.00
2023-01-26T00:32:53.215Z,28.30
2023-01-26T00:35:20.961Z,27.50
2023-01-26T00:37:47.803Z,26.80
2023-01-26T00:40:16.715Z,26.00
2023-01-26T00:42:43.730Z,28.10
2023-01-26T00:45:10.918Z,27.10
2023-01-26T00:47:38.758Z,29.60
2023-01-26T00:50:06.116Z,32.80
2023-01-26T00:58:33.003Z,24.60
2023-01-26T01:01:01.353Z,26.40
2023-01-26T01:03:29.655Z,26.70
2023-01-26T01:05:58.141Z,33.10
2023-01-26T01:08:27.554Z,32.00
2023-01-26T01:11:10.255Z,31.60
2023-01-26T01:13:38.971Z,32.10
2023-01-26T01:16:12.356Z,27.90
2023-01-26T01:18:40.480Z,27.50
2023-01-26T01:21:15.298Z,28.90
2023-01-26T01:23:43.747Z,30.00
2023-01-26T01:26:12.209Z,31.40
2023-01-26T01:28:44.093Z,26.20
2023-01-26T01:31:16.338Z,28.80
2023-01-26T01:33:45.550Z,23.90
2023-01-26T01:36:15.827Z,24.80
2023-01-26T01:38:44.848Z,29.10
2023-01-26T01:41:14.803Z,28.60
2023-01-26T01:43:43.087Z,23.60
2023-01-26T01:46:27.558Z,24.10
2023-01-26T01:49:01.011Z,22.40
2023-01-26T01:54:05.700Z,20.50
2023-01-26T01:56:35.897Z,22.70
2023-01-26T01:59:04.430Z,24.00
2023-01-26T02:01:33.027Z,21.70
2023-01-26T02:04:02.432Z,22.20
2023-01-26T02:06:41.096Z,20.80
2023-01-26T02:09:29.619Z,17.70
2023-01-26T02:11:58.391Z,19.40
2023-01-26T02:14:27.998Z,22.10
2023-01-26T02:16:55.999Z,23.30
2023-01-26T02:19:46.323Z,24.30
2023-01-26T02:22:42.384Z,22.50
2023-01-26T02:25:38.397Z,22.70
2023-01-26T02:28:09.617Z,21.60
2023-01-26T02:30:38.277Z,21.10
2023-01-26T02:33:06.767Z,23.30
2023-01-26T02:35:35.559Z,23.00
2023-01-26T02:38:04.031Z,23.20
2023-01-26T02:40:55.823Z,21.10
2023-01-26T02:43:26.764Z,18.00
2023-01-26T02:45:55.533Z,23.90
2023-01-26T02:48:42.412Z,22.00
2023-01-26T02:51:10.877Z,23.30
2023-01-26T02:53:39.086Z,18.00
2023-01-26T02:56:08.040Z,20.10
2023-01-26T02:58:36.512Z,19.80
2023-01-26T03:01:04.887Z,21.70
2023-01-26T03:03:42.279Z,20.90
2023-01-26T03:06:11.595Z,18.50
2023-01-26T03:08:39.982Z,18.50
2023-01-26T03:11:08.625Z,20.70
2023-01-26T03:13:37.055Z,18.20
2023-01-26T03:16:10.480Z,23.10
2023-01-26T03:18:57.748Z,21.00
2023-01-26T03:21:44.972Z,21.00
2023-01-26T03:24:33.270Z,20.60
2023-01-26T03:27:21.749Z,22.60
2023-01-26T03:29:50.444Z,20.50
2023-01-26T03:32:18.881Z,20.10
2023-01-26T03:34:48.579Z,21.00
2023-01-26T03:37:22.857Z,21.90
2023-01-26T03:40:18.364Z,21.30
2023-01-26T03:43:05.897Z,22.20
2023-01-26T03:45:53.409Z,21.80
2023-01-26T03:48:42.059Z,21.40
2023-01-26T03:51:30.080Z,22.60
2023-01-26T03:54:17.110Z,22.80
2023-01-26T03:56:45.571Z,23.10
2023-01-26T03:59:16.680Z,24.20
2023-01-26T04:02:05.052Z,22.40
2023-01-26T04:04:55.231Z,20.70
2023-01-26T04:07:46.368Z,24.00
2023-01-26T04:10:15.333Z,22.40
2023-01-26T04:13:04.962Z,39.20
2023-01-26T04:15:53.419Z,28.40
2023-01-26T04:18:40.422Z,25.10
2023-01-26T04:21:27.921Z,21.20
2023-01-26T04:23:57.570Z,24.10
2023-01-26T04:26:27.801Z,23.60
2023-01-26T04:28:56.287Z,23.10
2023-01-26T04:31:24.930Z,22.40
2023-01-26T04:33:53.126Z,24.00
2023-01-26T04:36:22.727Z,21.60
2023-01-26T04:38:52.103Z,22.90
2023-01-26T04:41:21.783Z,23.40
2023-01-26T04:43:57.083Z,23.70
2023-01-26T04:46:25.648Z,22.30
2023-01-26T04:48:54.417Z,23.10
2023-01-26T04:51:23.755Z,21.90
2023-01-26T04:53:51.931Z,22.20
2023-01-26T04:56:25.348Z,25.40
2023-01-26T04:58:54.629Z,24.90
2023-01-26T05:01:23.721Z,29.40
2023-01-26T05:03:52.870Z,22.00
2023-01-26T05:06:21.816Z,25.90
2023-01-26T05:08:51.281Z,26.00
2023-01-26T05:11:19.502Z,24.20
2023-01-26T05:14:11.030Z,24.40
2023-01-26T05:17:08.681Z,23.40
2023-01-26T05:19:49.374Z,25.70
2023-01-26T05:22:40.048Z,26.40
2023-01-26T05:25:33.363Z,25.50
2023-01-26T05:28:09.303Z,23.90
2023-01-26T05:30:37.917Z,26.40
2023-01-26T05:33:07.425Z,25.60
2023-01-26T05:35:36.363Z,22.60
2023-01-26T05:38:06.378Z,28.70
2023-01-26T05:40:35.575Z,26.30
2023-01-26T05:43:03.997Z,24.90
2023-01-26T05:45:49.689Z,26.50
2023-01-26T05:48:18.890Z,27.10
2023-01-26T05:50:49.356Z,28.50
2023-01-26T05:53:21.275Z,25.20
2023-01-26T05:55:50.015Z,26.40
2023-01-26T05:58:22.076Z,28.70
2023-01-26T06:00:50.570Z,29.40
2023-01-26T06:03:23.746Z,31.00
2023-01-26T06:05:54.277Z,29.30
2023-01-26T06:08:34.144Z,32.30
2023-01-26T06:11:21.657Z,32.60
2023-01-26T06:14:22.488Z,26.30
2023-01-26T06:16:52.962Z,26.70
2023-01-26T06:19:23.699Z,28.10
2023-01-26T06:21:55.996Z,30.00
2023-01-26T06:24:24.435Z,32.40
2023-01-26T06:26:54.729Z,32.00
2023-01-26T06:29:23.260Z,30.00
2023-01-26T06:31:51.998Z,31.10
2023-01-26T06:34:22.234Z,32.10
2023-01-26T06:36:50.982Z,28.50
2023-01-26T06:39:25.610Z,31.40
2023-01-26T06:41:55.129Z,32.00
2023-01-26T06:44:24.814Z,30.30
2023-01-26T06:46:53.074Z,27.30
2023-01-26T06:49:21.553Z,31.20
2023-01-26T06:51:57.846Z,30.90
2023-01-26T06:54:43.516Z,31.30
2023-01-26T06:57:23.401Z,43.50
2023-01-26T07:00:10.663Z,55.60
2023-01-26T07:02:56.774Z,48.50
2023-01-26T07:05:25.206Z,40.10
2023-01-26T07:07:54.401Z,38.10
2023-01-26T07:10:23.284Z,45.50
2023-01-26T07:12:51.663Z,52.50
2023-01-26T07:15:19.784Z,79.60
2023-01-26T07:17:48.017Z,123.50
2023-01-26T07:20:16.813Z,130.40
2023-01-26T07:22:46.033Z,149.80
2023-01-26T07:25:14.972Z,151.90
2023-01-26T07:27:43.685Z,162.40
2023-01-26T07:30:15.913Z,152.30
2023-01-26T07:32:44.126Z,177.30
2023-01-26T07:35:12.607Z,193.50
2023-01-26T07:37:40.736Z,187.50
2023-01-26T07:40:10.261Z,208.30
2023-01-26T07:42:39.191Z,214.60
2023-01-26T07:52:56.879Z,192.70
2023-01-26T07:55:27.227Z,188.80
2023-01-26T07:57:59.893Z,192.70
2023-01-26T08:00:31.185Z,183.00
2023-01-26T08:02:59.669Z,187.90
2023-01-26T08:05:28.816Z,166.70
2023-01-26T08:07:59.214Z,187.20
2023-01-26T08:10:31.674Z,184.20
2023-01-26T08:13:00.739Z,161.50
2023-01-26T08:15:29.145Z,175.80
2023-01-26T08:17:57.343Z,162.40
2023-01-26T08:20:27.053Z,149.20
2023-01-26T08:22:55.638Z,148.50
2023-01-26T08:25:24.026Z,160.80
2023-01-26T08:27:55.091Z,146.30
2023-01-26T08:30:24.835Z,138.90
2023-01-26T08:32:53.990Z,135.90
2023-01-26T08:35:22.508Z,137.70
2023-01-26T08:37:58.319Z,126.80
2023-01-26T08:40:54.723Z,129.50
2023-01-26T08:43:23.737Z,126.80
2023-01-26T08:45:52.718Z,132.40
2023-01-26T08:48:25.203Z,124.70
2023-01-26T08:50:59.298Z,135.70
2023-01-26T08:53:29.839Z,120.40
2023-01-26T08:56:02.488Z,127.70
2023-01-26T08:58:31.834Z,141.50
2023-01-26T09:01:21.861Z,120.10
2023-01-26T09:04:09.450Z,118.10
2023-01-26T09:06:37.922Z,116.60
2023-01-26T09:09:10.110Z,119.40
2023-01-26T09:11:39.546Z,124.70
2023-01-26T09:14:08.618Z,111.40
2023-01-26T09:16:36.780Z,120.60
2023-01-26T09:19:05.744Z,100.90
2023-01-26T09:21:34.202Z,109.30
2023-01-26T09:24:02.742Z,122.50
2023-01-26T09:26:31.832Z,99.00
2023-01-26T09:29:00.445Z,94.40
2023-01-26T09:31:29.069Z,101.50
2023-01-26T09:33:57.309Z,99.90
2023-01-26T09:36:26.365Z,101.10
2023-01-26T09:38:54.721Z,96.40
2023-01-26T09:41:23.387Z,107.40
2023-01-26T09:43:57.596Z,97.30
2023-01-26T09:46:28.579Z,98.00
2023-01-26T09:49:11.788Z,90.40
2023-01-26T09:52:00.330Z,88.40
2023-01-26T09:54:45.365Z,87.40
2023-01-26T09:57:18.013Z,83.50
2023-01-26T09:59:50.364Z,97.50
2023-01-26T10:02:33.791Z,102.70
2023-01-26T10:05:05.812Z,94.80
2023-01-26T10:07:34.375Z,86.90
2023-01-26T10:10:03.363Z,94.50
2023-01-26T10:12:35.455Z,92.90
2023-01-26T10:15:10.891Z,86.70
2023-01-26T10:17:41.585Z,72.40
2023-01-26T10:20:35.181Z,85.20
2023-01-26T10:23:12.245Z,99.00
2023-01-26T10:25:41.947Z,100.80
2023-01-26T10:28:13.128Z,98.10
2023-01-26T10:30:42.172Z,98.50
2023-01-26T10:33:25.289Z,98.80
2023-01-26T10:35:54.421Z,105.70
2023-01-26T10:38:39.640Z,106.00
2023-01-26T10:41:20.045Z,91.50
2023-01-26T10:43:57.580Z,101.00
2023-01-26T10:46:41.444Z,101.10
2023-01-26T10:51:42.052Z,110.80
2023-01-26T10:54:14.594Z,109.20
2023-01-26T10:56:46.659Z,115.20
2023-01-26T10:59:33.074Z,118.90
2023-01-26T11:02:11.091Z,103.90
2023-01-26T11:04:39.761Z,111.40
2023-01-26T11:07:25.814Z,131.10
2023-01-26T11:09:54.700Z,157.20
2023-01-26T11:12:25.205Z,149.00
2023-01-26T11:15:06.382Z,134.10
2023-01-26T11:17:52.675Z,111.10
2023-01-26T11:20:55.113Z,105.30
2023-01-26T11:23:57.972Z,99.60
2023-01-26T11:26:29.766Z,100.10
2023-01-26T11:29:23.264Z,100.90
2023-01-26T11:32:12.717Z,49.70
2023-01-26T11:35:05.931Z,54.20
2023-01-26T11:37:48.077Z,50.90
2023-01-26T11:40:38.055Z,54.30
2023-01-26T11:43:39.100Z,72.70
2023-01-26T11:46:35.564Z,54.90
2023-01-26T11:49:39.557Z,47.80
2023-01-26T11:52:29.420Z,46.40
2023-01-26T11:55:15.089Z,52.60
2023-01-26T11:57:50.436Z,48.70
2023-01-26T12:00:30.387Z,47.80
2023-01-26T12:03:07.383Z,47.90
2023-01-26T12:05:44.598Z,49.10
2023-01-26T12:08:18.378Z,43.50
2023-01-26T14:10:45.732Z,31.20
2023-01-26T14:13:21.305Z,28.70
2023-01-26T14:15:56.580Z,35.60
2023-01-26T14:18:24.668Z,33.40
2023-01-26T14:21:05.086Z,34.70
2023-01-26T14:23:35.820Z,30.20
2023-01-26T14:26:06.483Z,32.70
2023-01-26T14:28:41.097Z,35.60
2023-01-26T14:31:18.581Z,34.40
2023-01-26T14:33:48.120Z,35.70
2023-01-26T14:36:17.013Z,39.00
2023-01-26T14:38:46.848Z,68.60
2023-01-26T14:41:28.695Z,66.10
2023-01-26T14:43:59.910Z,43.10
2023-01-26T14:46:37.754Z,34.30
2023-01-26T14:49:14.881Z,49.40
2023-01-26T14:51:46.133Z,38.20
2023-01-26T14:54:31.710Z,38.00
2023-01-26T14:57:00.317Z,39.10
2023-01-26T14:59:35.222Z,36.30
2023-01-26T15:02:15.725Z,35.20
2023-01-26T15:04:46.926Z,36.00
2023-01-26T15:07:42.044Z,32.70
2023-01-26T15:10:38.595Z,31.50
2023-01-26T15:13:08.388Z,36.90
2023-01-26T15:15:38.547Z,37.20
2023-01-26T15:18:12.896Z,40.70
2023-01-26T15:20:46.936Z,37.90
2023-01-26T15:23:36.003Z,40.50
2023-01-26T15:26:28.037Z,42.00
2023-01-26T15:28:58.349Z,40.60
2023-01-26T15:31:38.726Z,49.00
2023-01-26T15:34:26.469Z,46.70
2023-01-26T15:36:54.620Z,47.70
2023-01-26T15:39:28.120Z,43.00
2023-01-26T15:42:16.112Z,39.90
2023-01-26T15:44:44.378Z,42.60
2023-01-26T15:47:14.078Z,42.40
2023-01-26T15:49:42.835Z,43.90
2023-01-26T15:52:18.366Z,39.90
2023-01-26T15:54:47.151Z,39.00
2023-01-26T15:57:15.589Z,37.90
2023-01-26T15:59:44.030Z,35.60
2023-01-26T16:02:17.207Z,36.50
2023-01-26T16:04:45.422Z,40.20
2023-01-26T16:07:14.765Z,38.90
2023-01-26T16:09:42.940Z,34.10
2023-01-26T16:12:31.235Z,37.20
2023-01-26T16:15:00.456Z,45.20
2023-01-26T16:17:28.572Z,37.50
2023-01-26T16:19:56.956Z,36.60
2023-01-26T16:22:25.587Z,39.30
2023-01-26T16:24:53.833Z,36.00
2023-01-26T16:27:22.850Z,37.60
2023-01-26T16:29:51.120Z,37.20
2023-01-26T16:32:28.177Z,37.70
2023-01-26T16:34:56.732Z,38.90
2023-01-26T16:37:24.993Z,39.60
2023-01-26T16:39:53.214Z,37.60
2023-01-26T16:42:22.468Z,41.50
2023-01-26T16:44:51.156Z,39.60
2023-01-26T16:47:19.481Z,41.40
2023-01-26T16:49:50.435Z,38.60
2023-01-26T16:52:18.458Z,42.10
2023-01-26T16:54:48.457Z,42.60
2023-01-26T16:57:17.297Z,41.80
2023-01-26T16:59:45.583Z,40.70
2023-01-26T17:02:24.585Z,42.10
2023-01-26T17:04:53.080Z,42.30
2023-01-26T17:07:21.214Z,42.40
2023-01-26T17:09:49.530Z,45.00
2023-01-26T17:12:17.911Z,42.80
2023-01-26T17:14:45.968Z,41.50
2023-01-26T17:17:14.276Z,46.10
2023-01-26T17:19:42.447Z,48.10
2023-01-26T17:22:10.560Z,48.50
2023-01-26T17:24:38.921Z,45.30
2023-01-26T17:27:07.374Z,48.30
2023-01-26T17:29:35.480Z,45.80
2023-01-26T17:32:03.746Z,50.70
2023-01-26T17:34:32.091Z,48.30
2023-01-26T17:37:00.757Z,48.60
2023-01-26T17:39:28.940Z,47.20
2023-01-26T17:41:57.594Z,52.20
2023-01-26T17:44:26.127Z,51.90
2023-01-26T17:46:54.497Z,61.20
2023-01-26T17:49:22.777Z,58.60
2023-01-26T17:51:51.384Z,55.00
2023-01-26T17:54:20.018Z,51.60
2023-01-26T17:56:48.689Z,50.90
2023-01-26T17:59:16.941Z,52.00
2023-01-26T18:01:44.946Z,47.30
2023-01-26T18:04:13.026Z,50.70
2023-01-26T20:13:36.200Z,32.10
2023-01-26T20:16:07.029Z,29.00
2023-01-26T20:18:36.398Z,47.60
2023-01-26T20:21:06.614Z,63.20
2023-01-26T20:23:35.292Z,46.10
2023-01-26T20:26:07.670Z,68.00
2023-01-26T20:28:36.526Z,66.00
2023-01-26T20:31:06.920Z,38.60
2023-01-26T20:33:36.860Z,35.30
2023-01-26T20:36:07.030Z,32.20
2023-01-26T20:38:35.585Z,34.20
2023-01-26T20:41:08.133Z,28.10
2023-01-26T20:43:39.486Z,31.30
2023-01-26T20:46:12.539Z,27.40
2023-01-26T20:48:40.814Z,28.40
2023-01-26T20:51:19.834Z,32.00
2023-01-26T20:53:48.604Z,28.90
2023-01-26T20:56:17.504Z,32.00
2023-01-26T20:58:45.780Z,31.10
2023-01-26T21:01:15.836Z,29.40
2023-01-26T21:03:44.486Z,25.90
2023-01-26T21:06:14.151Z,28.00
2023-01-26T21:08:42.620Z,32.20
2023-01-26T21:11:15.300Z,27.40
2023-01-26T21:13:43.614Z,24.10
2023-01-26T21:16:13.373Z,24.80
2023-01-26T21:18:41.631Z,25.30
2023-01-26T21:21:12.208Z,24.80
2023-01-26T21:23:40.532Z,26.20
2023-01-26T21:26:11.949Z,25.20
2023-01-26T21:28:40.252Z,26.70
2023-01-26T21:31:10.417Z,31.60
2023-01-26T21:33:43.487Z,34.00
2023-01-26T21:36:13.858Z,34.60
2023-01-26T21:38:45.066Z,32.80
2023-01-26T21:41:33.936Z,29.30
2023-01-26T21:44:07.276Z,29.30
2023-01-26T21:46:35.971Z,26.30
2023-01-26T21:49:04.108Z,23.40
2023-01-26T21:51:52.656Z,25.00
2023-01-26T21:54:20.761Z,23.50
2023-01-26T21:56:48.864Z,24.70
2023-01-26T21:59:21.299Z,25.40
2023-01-26T22:01:51.349Z,22.40
2023-01-26T22:04:28.064Z,25.20
2023-01-26T22:06:56.711Z,23.70
2023-01-26T22:09:24.898Z,26.90
2023-01-26T22:11:53.969Z,24.60
2023-01-26T22:14:25.985Z,29.10
2023-01-26T22:16:55.247Z,25.50
2023-01-26T22:19:23.255Z,26.40
2023-01-26T22:21:51.635Z,32.10
2023-01-26T22:24:20.595Z,28.50
2023-01-26T22:26:49.260Z,29.00
2023-01-26T22:29:18.277Z,31.20
2023-01-26T22:31:47.086Z,25.50
2023-01-26T22:34:15.134Z,30.00
2023-01-26T22:36:43.436Z,33.90
2023-01-26T22:39:12.663Z,35.90
2023-01-26T22:41:41.217Z,34.60
2023-01-26T22:44:09.844Z,32.50
2023-01-26T22:46:39.534Z,36.50
2023-01-26T22:49:08.057Z,35.60
2023-01-26T22:51:39.481Z,34.10
2023-01-26T22:54:08.510Z,33.90
2023-01-26T22:56:37.230Z,38.30
2023-01-26T22:59:06.057Z,37.00
2023-01-26T23:01:35.979Z,32.60
2023-01-26T23:04:04.410Z,37.50
2023-01-26T23:06:32.462Z,34.60
2023-01-26T23:09:02.275Z,31.40
2023-01-26T23:11:30.663Z,35.60
2023-01-26T23:13:58.890Z,35.90
2023-01-26T23:16:27.032Z,28.80
2023-01-26T23:18:56.445Z,28.90
2023-01-26T23:21:25.178Z,33.10
2023-01-26T23:23:53.428Z,32.80
2023-01-26T23:26:21.583Z,35.90
2023-01-26T23:28:49.612Z,35.70
2023-01-26T23:31:18.290Z,33.10
2023-01-26T23:33:46.596Z,32.40
2023-01-26T23:36:16.193Z,35.10
2023-01-26T23:38:46.259Z,33.70
2023-01-26T23:41:14.756Z,36.30
2023-01-26T23:43:42.777Z,36.30
2023-01-26T23:46:11.841Z,36.00
2023-01-26T23:48:40.460Z,36.00
2023-01-26T23:51:10.432Z,34.10
2023-01-26T23:53:38.540Z,34.70
2023-01-26T23:56:09.465Z,34.10
2023-01-26T23:58:37.611Z,34.60
